Time;durP1;ratioP1;P1;durP2;ratioP2;P2;SDS_P1;SDS_P2;PMS_P1;PMS_P2;Temp;Humidity;BMP_temperature;BMP_pressure;BME280_temperature;BME280_humidity;BME280_pressure;Samples;Min_cycle;Max_cycle;Signal;HPM_P1;HPM_P2
2023/03/28 00:01:00;;;;;;;3.95;2.30;;;;;;;;;;5991257;23;20023;-78
2023/03/28 00:03:28;;;;;;;3.78;2.13;;;;;;;;;;6013819;23;20110;-78
2023/03/28 00:06:01;;;;;;;4.55;2.33;;;;;;;;;;5990228;23;20023;-78
2023/03/28 00:08:29;;;;;;;5.50;1.80;;;;;;;;;;6012332;23;20082;-78
2023/03/28 00:11:10;;;;;;;4.22;1.73;;;;;;;;;;6012392;23;20099;-77
2023/03/28 00:13:37;;;;;;;5.32;1.90;;;;;;;;;;5989108;23;20034;-78
2023/03/28 00:16:11;;;;;;;6.88;1.98;;;;;;;;;;6012153;23;20485;-78
2023/03/28 00:18:39;;;;;;;4.13;2.05;;;;;;;;;;6012074;23;20019;-77
2023/03/28 00:21:18;;;;;;;5.70;2.08;;;;;;;;;;6035401;23;20024;-78
2023/03/28 00:23:45;;;;;;;4.53;1.83;;;;;;;;;;6010019;23;20023;-78
2023/03/28 00:26:12;;;;;;;3.03;1.60;;;;;;;;;;6012423;23;20549;-78
2023/03/28 00:28:39;;;;;;;3.78;1.80;;;;;;;;;;5988345;23;20029;-77
2023/03/28 00:31:06;;;;;;;3.60;2.20;;;;;;;;;;5987126;23;20097;-77
2023/03/28 00:33:33;;;;;;;8.30;2.25;;;;;;;;;;5987304;23;20704;-77
2023/03/28 00:36:00;;;;;;;4.28;1.80;;;;;;;;;;5987363;23;20047;-76
2023/03/28 00:38:27;;;;;;;3.58;1.70;;;;;;;;;;5987252;23;20023;-77
2023/03/28 00:40:56;;;;;;;4.93;1.80;;;;;;;;;;5987058;23;20031;-76
2023/03/28 00:43:36;;;;;;;3.63;1.70;;;;;;;;;;5990648;23;20031;-77
2023/03/28 00:46:06;;;;;;;4.45;1.67;;;;;;;;;;6011844;23;20064;-78
2023/03/28 00:48:35;;;;;;;3.50;1.83;;;;;;;;;;6012804;23;20091;-77
2023/03/28 00:51:02;;;;;;;6.53;1.70;;;;;;;;;;5988678;23;20023;-78
2023/03/28 00:53:30;;;;;;;3.67;1.90;;;;;;;;;;5989375;23;20038;-78
2023/03/28 00:56:00;;;;;;;2.17;1.48;;;;;;;;;;6012706;23;20031;-77
2023/03/28 00:58:29;;;;;;;2.38;1.60;;;;;;;;;;6013381;23;20027;-77
2023/03/28 01:00:56;;;;;;;3.03;1.70;;;;;;;;;;6013465;23;20098;-78
2023/03/28 01:03:28;;;;;;;4.95;1.60;;;;;;;;;;5989003;23;20066;-78
2023/03/28 01:05:55;;;;;;;2.95;1.48;;;;;;;;;;6011935;23;20095;-78
2023/03/28 01:08:24;;;;;;;5.03;2.00;;;;;;;;;;5988818;23;20032;-78
2023/03/28 01:10:51;;;;;;;4.03;1.40;;;;;;;;;;6011786;23;20099;-78
2023/03/28 01:13:20;;;;;;;4.53;1.50;;;;;;;;;;5988680;23;20034;-78
2023/03/28 01:15:50;;;;;;;3.88;2.17;;;;;;;;;;6012235;23;20027;-78
2023/03/28 01:18:21;;;;;;;6.07;2.20;;;;;;;;;;6012239;23;20053;-78
2023/03/28 01:20:54;;;;;;;3.90;2.00;;;;;;;;;;6012129;23;20019;-78
2023/03/28 01:23:52;;;;;;;6.53;1.60;;;;;;;;;;6036784;23;20026;-77
2023/03/28 01:26:43;;;;;;;3.55;1.58;;;;;;;;;;6036737;23;20039;-78
2023/03/28 01:29:28;;;;;;;3.38;1.75;;;;;;;;;;6012667;23;20053;-76
2023/03/28 01:32:17;;;;;;;6.70;1.80;;;;;;;;;;6035336;23;20030;-78
2023/03/28 01:35:13;;;;;;;2.10;1.75;;;;;;;;;;6037496;23;20027;-77
2023/03/28 01:38:11;;;;;;;5.28;1.92;;;;;;;;;;5981428;23;20027;-77
2023/03/28 01:40:53;;;;;;;4.55;2.08;;;;;;;;;;6036395;23;20024;-77
2023/03/28 01:43:50;;;;;;;4.25;2.15;;;;;;;;;;6035433;23;20073;-76
2023/03/28 01:46:17;;;;;;;4.57;1.70;;;;;;;;;;6012578;23;20029;-77
2023/03/28 01:49:03;;;;;;;3.95;1.88;;;;;;;;;;6036781;23;20027;-77
2023/03/28 01:51:42;;;;;;;6.68;2.00;;;;;;;;;;6036110;23;20031;-78
2023/03/28 01:54:18;;;;;;;2.80;1.83;;;;;;;;;;6011764;23;20027;-77
2023/03/28 01:57:00;;;;;;;4.30;1.70;;;;;;;;;;6036684;23;20027;-77
2023/03/28 01:59:40;;;;;;;3.78;2.13;;;;;;;;;;6038095;23;20138;-79
2023/03/28 02:02:26;;;;;;;4.40;2.08;;;;;;;;;;6013436;23;20031;-78
2023/03/28 02:04:54;;;;;;;5.13;2.22;;;;;;;;;;6016516;23;20415;-78
2023/03/28 02:07:23;;;;;;;5.53;2.47;;;;;;;;;;6016497;23;20034;-78
2023/03/28 02:09:51;;;;;;;5.38;2.33;;;;;;;;;;5992737;23;20030;-78
2023/03/28 02:12:22;;;;;;;3.08;2.35;;;;;;;;;;6014742;23;20019;-79
2023/03/28 02:14:49;;;;;;;5.65;2.05;;;;;;;;;;6014179;23;20033;-78
2023/03/28 02:17:16;;;;;;;5.22;2.83;;;;;;;;;;6014982;23;20458;-79
2023/03/28 02:19:47;;;;;;;5.15;2.40;;;;;;;;;;5990504;23;20079;-77
2023/03/28 02:22:39;;;;;;;3.65;2.28;;;;;;;;;;6013228;23;20031;-78
2023/03/28 02:25:07;;;;;;;3.77;2.13;;;;;;;;;;6014369;23;20399;-78
2023/03/28 02:27:35;;;;;;;5.55;2.40;;;;;;;;;;6014470;23;20626;-77
2023/03/28 02:30:02;;;;;;;6.15;2.45;;;;;;;;;;5991980;23;20035;-78
2023/03/28 02:32:32;;;;;;;4.32;2.53;;;;;;;;;;6015119;23;20034;-75
2023/03/28 02:34:59;;;;;;;7.40;2.70;;;;;;;;;;6017180;23;20490;-76
2023/03/28 02:37:53;;;;;;;5.18;2.55;;;;;;;;;;5991730;23;20489;-78
2023/03/28 02:40:33;;;;;;;7.97;3.00;;;;;;;;;;6013176;23;20075;-78
2023/03/28 02:43:28;;;;;;;6.53;2.80;;;;;;;;;;6013180;23;20027;-77
2023/03/28 02:46:12;;;;;;;6.05;3.20;;;;;;;;;;6034866;23;20029;-77
2023/03/28 02:48:55;;;;;;;;;;;;;;;;;;6012580;23;20027;-77
2023/03/28 02:51:39;;;;;;;4.93;2.90;;;;;;;;;;6034599;23;19945;-76
2023/03/28 02:54:11;;;;;;;6.82;3.00;;;;;;;;;;6035943;23;20054;-77
2023/03/28 02:56:37;;;;;;;5.82;2.80;;;;;;;;;;6035236;23;20042;-77
2023/03/28 02:59:15;;;;;;;4.13;2.50;;;;;;;;;;6038909;23;20038;-78
2023/03/28 03:01:42;;;;;;;3.83;2.78;;;;;;;;;;6014203;23;20477;-79
2023/03/28 03:04:10;;;;;;;5.15;3.33;;;;;;;;;;5989906;23;20490;-77
2023/03/28 03:06:37;;;;;;;3.95;2.83;;;;;;;;;;6013640;23;20031;-78
2023/03/28 03:09:04;;;;;;;7.18;3.60;;;;;;;;;;5989980;23;20023;-78
2023/03/28 03:11:31;;;;;;;7.45;3.03;;;;;;;;;;6012023;23;20470;-78
2023/03/28 03:13:59;;;;;;;3.92;3.22;;;;;;;;;;6012348;23;20055;-77
2023/03/28 03:16:27;;;;;;;7.28;3.55;;;;;;;;;;5989886;23;20027;-77
2023/03/28 03:18:56;;;;;;;6.32;3.10;;;;;;;;;;5990234;23;20027;-78
2023/03/28 03:21:24;;;;;;;5.40;3.00;;;;;;;;;;6012381;23;20030;-75
2023/03/28 03:23:50;;;;;;;7.55;2.95;;;;;;;;;;6015572;23;20102;-77
2023/03/28 03:26:17;;;;;;;5.88;3.22;;;;;;;;;;6013077;23;20031;-78
2023/03/28 03:28:44;;;;;;;6.95;3.65;;;;;;;;;;5988532;23;20047;-77
2023/03/28 03:31:11;;;;;;;4.43;3.22;;;;;;;;;;5988761;23;20019;-78
2023/03/28 03:33:40;;;;;;;7.25;3.55;;;;;;;;;;5988873;23;20054;-79
2023/03/28 03:36:08;;;;;;;7.72;3.80;;;;;;;;;;5988140;23;20107;-77
2023/03/28 03:38:35;;;;;;;6.30;3.40;;;;;;;;;;5988403;23;20098;-77
2023/03/28 03:41:02;;;;;;;10.35;3.92;;;;;;;;;;5988687;23;20058;-78
2023/03/28 03:43:29;;;;;;;5.60;3.60;;;;;;;;;;5989101;23;20338;-76
2023/03/28 03:45:56;;;;;;;5.97;3.20;;;;;;;;;;6012095;23;20089;-77
2023/03/28 03:48:24;;;;;;;6.03;3.20;;;;;;;;;;5989299;23;20035;-77
2023/03/28 03:50:50;;;;;;;4.82;2.90;;;;;;;;;;5988811;23;20023;-79
2023/03/28 03:53:17;;;;;;;5.30;3.42;;;;;;;;;;5989616;23;20057;-77
2023/03/28 03:55:44;;;;;;;5.13;3.55;;;;;;;;;;5989146;23;20027;-76
2023/03/28 03:58:10;;;;;;;4.88;3.17;;;;;;;;;;5988323;23;20027;-78
2023/03/28 04:00:38;;;;;;;6.88;3.22;;;;;;;;;;5988632;23;20520;-77
2023/03/28 04:03:05;;;;;;;4.82;3.40;;;;;;;;;;5988737;23;20238;-77
2023/03/28 04:05:32;;;;;;;5.90;3.15;;;;;;;;;;5989429;23;20027;-78
2023/03/28 04:08:00;;;;;;;6.68;3.75;;;;;;;;;;5989525;23;20023;-78
2023/03/28 04:10:27;;;;;;;4.80;3.40;;;;;;;;;;6012077;23;20488;-78
2023/03/28 04:12:54;;;;;;;7.28;3.80;;;;;;;;;;6012593;23;20137;-77
2023/03/28 04:15:20;;;;;;;8.55;3.72;;;;;;;;;;6012573;23;20082;-79
2023/03/28 04:17:49;;;;;;;4.22;3.30;;;;;;;;;;6012356;23;20034;-77
2023/03/28 04:20:16;;;;;;;8.43;3.67;;;;;;;;;;5988407;23;20027;-76
2023/03/28 04:22:44;;;;;;;5.72;3.75;;;;;;;;;;5989372;23;20090;-78
2023/03/28 04:25:12;;;;;;;3.67;3.30;;;;;;;;;;5990422;23;20079;-77
2023/03/28 04:27:45;;;;;;;6.18;3.92;;;;;;;;;;5988591;23;20024;-77
2023/03/28 04:30:14;;;;;;;5.88;3.88;;;;;;;;;;6047927;23;20038;-76
2023/03/28 04:32:40;;;;;;;6.53;3.50;;;;;;;;;;6040737;23;20078;-77
2023/03/28 04:35:07;;;;;;;9.10;3.58;;;;;;;;;;6018456;23;20189;-77
2023/03/28 04:37:36;;;;;;;9.60;3.50;;;;;;;;;;6031832;23;20058;-76
2023/03/28 04:40:09;;;;;;;6.70;3.85;;;;;;;;;;5987328;23;20099;-80
2023/03/28 04:42:37;;;;;;;5.95;3.70;;;;;;;;;;6034595;23;20023;-77
2023/03/28 04:45:05;;;;;;;6.32;3.60;;;;;;;;;;6011736;23;20031;-77
2023/03/28 04:47:32;;;;;;;5.90;3.60;;;;;;;;;;5989244;23;20027;-77
2023/03/28 04:49:59;;;;;;;8.15;4.00;;;;;;;;;;6011797;23;20321;-77
2023/03/28 04:52:26;;;;;;;8.38;4.03;;;;;;;;;;5988345;23;20354;-77
2023/03/28 04:54:52;;;;;;;7.53;4.20;;;;;;;;;;6012303;23;20047;-77
2023/03/28 04:57:20;;;;;;;11.93;4.40;;;;;;;;;;6012883;23;20485;-79
2023/03/28 04:59:47;;;;;;;10.85;4.32;;;;;;;;;;6012649;23;20019;-78
2023/03/28 05:02:14;;;;;;;9.35;4.65;;;;;;;;;;5990323;23;20053;-79
2023/03/28 05:04:42;;;;;;;9.30;4.30;;;;;;;;;;6013647;23;20050;-78
2023/03/28 05:07:09;;;;;;;6.88;4.60;;;;;;;;;;5988867;23;20895;-78
2023/03/28 05:09:36;;;;;;;8.65;4.35;;;;;;;;;;6015471;23;20034;-78
2023/03/28 05:12:04;;;;;;;11.27;3.95;;;;;;;;;;5991473;23;20020;-78
2023/03/28 05:14:30;;;;;;;6.50;3.80;;;;;;;;;;6014417;23;20027;-78
2023/03/28 05:16:57;;;;;;;8.60;4.20;;;;;;;;;;5991114;23;20032;-77
2023/03/28 05:19:25;;;;;;;11.43;4.90;;;;;;;;;;5991334;23;20027;-77
2023/03/28 05:21:52;;;;;;;6.43;3.58;;;;;;;;;;6014163;23;20098;-77
2023/03/28 05:24:19;;;;;;;10.05;4.93;;;;;;;;;;5991558;23;20034;-78
2023/03/28 05:26:46;;;;;;;8.30;4.80;;;;;;;;;;5991672;23;20370;-78
2023/03/28 05:29:12;;;;;;;7.60;4.65;;;;;;;;;;6014973;23;20098;-78
2023/03/28 05:31:39;;;;;;;10.70;4.65;;;;;;;;;;6014700;23;20053;-78
2023/03/28 05:34:06;;;;;;;6.05;4.25;;;;;;;;;;6014486;23;20023;-78
2023/03/28 05:36:33;;;;;;;7.03;4.32;;;;;;;;;;6013903;23;20027;-78
2023/03/28 05:39:00;;;;;;;9.02;4.13;;;;;;;;;;5989494;23;20118;-76
2023/03/28 05:41:27;;;;;;;5.45;3.47;;;;;;;;;;6012035;23;20026;-77
2023/03/28 05:43:53;;;;;;;7.18;3.55;;;;;;;;;;5989138;23;20684;-77
2023/03/28 05:46:20;;;;;;;8.15;3.63;;;;;;;;;;6036152;23;20030;-76
2023/03/28 05:48:47;;;;;;;9.93;4.13;;;;;;;;;;5989019;23;20110;-76
2023/03/28 05:51:15;;;;;;;8.35;4.75;;;;;;;;;;6012571;23;20077;-77
2023/03/28 05:53:42;;;;;;;6.50;4.63;;;;;;;;;;5989172;23;20027;-76
2023/03/28 05:56:09;;;;;;;10.13;3.95;;;;;;;;;;6013373;23;20031;-76
2023/03/28 05:58:36;;;;;;;7.32;4.07;;;;;;;;;;6011517;23;20034;-76
2023/03/28 06:01:04;;;;;;;8.07;4.50;;;;;;;;;;5986478;23;20027;-75
2023/03/28 06:03:31;;;;;;;4.88;4.30;;;;;;;;;;5987433;23;20114;-78
2023/03/28 06:05:58;;;;;;;7.38;3.72;;;;;;;;;;5986911;23;20035;-75
2023/03/28 06:08:26;;;;;;;5.13;3.58;;;;;;;;;;5989531;23;20082;-75
2023/03/28 06:10:52;;;;;;;6.05;3.65;;;;;;;;;;6011592;23;20030;-76
2023/03/28 06:13:19;;;;;;;10.02;3.97;;;;;;;;;;5986946;23;20049;-76
2023/03/28 06:15:46;;;;;;;10.43;3.40;;;;;;;;;;6011094;23;20023;-77
2023/03/28 06:18:13;;;;;;;9.25;4.30;;;;;;;;;;6011703;23;20331;-77
2023/03/28 06:20:39;;;;;;;5.20;3.60;;;;;;;;;;5989322;23;20033;-78
2023/03/28 06:23:06;;;;;;;7.72;4.10;;;;;;;;;;6012725;23;20023;-78
2023/03/28 06:25:33;;;;;;;8.05;4.03;;;;;;;;;;6011720;23;20031;-77
2023/03/28 06:28:00;;;;;;;9.18;3.65;;;;;;;;;;5988476;23;20470;-77
2023/03/28 06:30:26;;;;;;;6.68;3.65;;;;;;;;;;5988690;23;20478;-78
2023/03/28 06:32:53;;;;;;;7.07;2.75;;;;;;;;;;5988282;23;20024;-77
2023/03/28 06:35:20;;;;;;;9.00;3.25;;;;;;;;;;5988378;23;20082;-78
2023/03/28 06:37:47;;;;;;;9.68;3.08;;;;;;;;;;6011431;23;20019;-78
2023/03/28 06:40:13;;;;;;;6.63;2.92;;;;;;;;;;6011379;23;20478;-77
2023/03/28 06:42:40;;;;;;;11.65;2.92;;;;;;;;;;5988295;23;20074;-77
2023/03/28 06:45:08;;;;;;;6.07;3.30;;;;;;;;;;6011616;23;20026;-77
2023/03/28 06:47:35;;;;;;;11.18;4.07;;;;;;;;;;6012265;23;20034;-76
2023/03/28 06:50:01;;;;;;;10.02;4.35;;;;;;;;;;5988219;23;20028;-77
2023/03/28 06:52:28;;;;;;;5.05;3.10;;;;;;;;;;5987790;23;20023;-76
2023/03/28 06:54:55;;;;;;;7.65;3.10;;;;;;;;;;5988965;23;20027;-78
2023/03/28 06:57:22;;;;;;;5.82;3.10;;;;;;;;;;6012709;23;20386;-77
2023/03/28 06:59:50;;;;;;;13.00;3.53;;;;;;;;;;6013829;23;20107;-77
2023/03/28 07:02:17;;;;;;;6.38;3.20;;;;;;;;;;5989141;23;20027;-78
2023/03/28 07:04:44;;;;;;;5.05;2.92;;;;;;;;;;6012831;23;20027;-75
2023/03/28 07:07:11;;;;;;;7.25;3.15;;;;;;;;;;6012925;23;20054;-77
2023/03/28 07:09:37;;;;;;;7.63;4.13;;;;;;;;;;6011497;23;20023;-77
2023/03/28 07:12:04;;;;;;;8.88;3.03;;;;;;;;;;6012048;23;20031;-77
2023/03/28 07:14:31;;;;;;;10.27;3.28;;;;;;;;;;5988146;23;20103;-77
2023/03/28 07:16:58;;;;;;;8.48;3.10;;;;;;;;;;6011790;23;20027;-74
2023/03/28 07:19:25;;;;;;;8.45;5.05;;;;;;;;;;6011279;23;20031;-76
2023/03/28 07:21:52;;;;;;;7.95;3.70;;;;;;;;;;5988384;23;20030;-75
2023/03/28 07:24:18;;;;;;;8.35;3.75;;;;;;;;;;6011119;23;20054;-79
2023/03/28 07:26:45;;;;;;;7.63;3.95;;;;;;;;;;5987404;23;20027;-75
2023/03/28 07:29:12;;;;;;;7.97;3.75;;;;;;;;;;5987363;23;20033;-75
2023/03/28 07:31:38;;;;;;;6.20;3.00;;;;;;;;;;6010049;23;20496;-77
2023/03/28 07:34:05;;;;;;;7.78;2.72;;;;;;;;;;6010878;23;20079;-75
2023/03/28 07:36:32;;;;;;;9.18;3.67;;;;;;;;;;6010618;23;20023;-74
2023/03/28 07:38:59;;;;;;;9.43;3.60;;;;;;;;;;5987117;23;20034;-77
2023/03/28 07:41:26;;;;;;;6.55;2.30;;;;;;;;;;6010484;23;20458;-75
2023/03/28 07:43:52;;;;;;;7.47;2.42;;;;;;;;;;5987599;23;20023;-75
2023/03/28 07:46:20;;;;;;;6.05;2.90;;;;;;;;;;5987764;23;20033;-76
2023/03/28 07:48:47;;;;;;;7.65;2.10;;;;;;;;;;6010983;23;20023;-76
2023/03/28 07:51:14;;;;;;;5.90;2.47;;;;;;;;;;6033686;23;20058;-74
2023/03/28 07:53:41;;;;;;;6.85;2.42;;;;;;;;;;6010085;23;20458;-74
2023/03/28 07:56:11;;;;;;;7.03;2.40;;;;;;;;;;6010651;23;20023;-74
2023/03/28 07:58:39;;;;;;;5.78;1.85;;;;;;;;;;6010559;23;20094;-74
2023/03/28 08:01:08;;;;;;;6.57;2.47;;;;;;;;;;6010126;23;20028;-74
2023/03/28 08:03:35;;;;;;;10.68;2.25;;;;;;;;;;6010296;23;20031;-76
2023/03/28 08:06:04;;;;;;;3.70;2.15;;;;;;;;;;5987278;23;20031;-73
2023/03/28 08:08:45;;;;;;;8.00;2.40;;;;;;;;;;6013403;23;20024;-74
2023/03/28 08:11:12;;;;;;;11.75;6.63;;;;;;;;;;6010393;23;20459;-74
2023/03/28 08:13:39;;;;;;;10.18;2.83;;;;;;;;;;5987326;23;20027;-74
2023/03/28 08:16:06;;;;;;;6.95;3.80;;;;;;;;;;5987393;23;20031;-74
2023/03/28 08:18:33;;;;;;;9.98;3.60;;;;;;;;;;6034326;23;20027;-74
2023/03/28 08:21:01;;;;;;;7.88;2.25;;;;;;;;;;5986996;23;20027;-74
2023/03/28 08:23:29;;;;;;;9.13;2.70;;;;;;;;;;6033405;23;20083;-74
2023/03/28 08:26:03;;;;;;;7.05;2.53;;;;;;;;;;6010313;23;20029;-75
2023/03/28 08:28:32;;;;;;;6.50;2.17;;;;;;;;;;6010108;23;20023;-75
2023/03/28 08:30:59;;;;;;;6.82;2.60;;;;;;;;;;6010091;23;20130;-75
2023/03/28 08:33:27;;;;;;;7.05;2.05;;;;;;;;;;6010546;23;20039;-74
2023/03/28 08:35:55;;;;;;;5.60;2.70;;;;;;;;;;6010290;23;20031;-76
2023/03/28 08:38:23;;;;;;;5.45;2.25;;;;;;;;;;5987676;23;20023;-74
2023/03/28 08:41:07;;;;;;;6.43;2.50;;;;;;;;;;6010519;23;20366;-75
2023/03/28 08:44:02;;;;;;;6.28;2.40;;;;;;;;;;6033221;23;20067;-75
2023/03/28 08:46:29;;;;;;;7.43;2.53;;;;;;;;;;6033587;23;20098;-77
2023/03/28 08:48:56;;;;;;;6.30;2.67;;;;;;;;;;5987630;23;20023;-77
2023/03/28 08:51:31;;;;;;;5.93;2.35;;;;;;;;;;5986729;23;20037;-77
2023/03/28 08:54:10;;;;;;;7.78;2.22;;;;;;;;;;6011569;23;20351;-77
2023/03/28 08:56:54;;;;;;;8.25;2.20;;;;;;;;;;6007429;23;20358;-77
2023/03/28 08:59:32;;;;;;;5.15;2.17;;;;;;;;;;6003265;23;20105;-78
2023/03/28 09:01:59;;;;;;;6.97;3.47;;;;;;;;;;6008413;23;20031;-77
2023/03/28 09:04:33;;;;;;;9.40;3.58;;;;;;;;;;5986841;23;20043;-77
2023/03/28 09:07:43;;;;;;;8.75;4.03;;;;;;;;;;6009143;23;20612;-77
2023/03/28 09:10:39;;;;;;;6.28;2.35;;;;;;;;;;5959012;23;20094;-77
2023/03/28 09:13:44;;;;;;;3.85;2.05;;;;;;;;;;5992203;23;20023;-77
2023/03/28 09:16:32;;;;;;;4.63;2.17;;;;;;;;;;6033213;23;20019;-77
2023/03/28 09:19:14;;;;;;;5.40;1.80;;;;;;;;;;6033557;23;20035;-77
2023/03/28 09:22:00;;;;;;;5.40;1.70;;;;;;;;;;6033421;23;20034;-76
2023/03/28 09:24:51;;;;;;;5.55;1.88;;;;;;;;;;6011021;23;20407;-77
2023/03/28 09:27:27;;;;;;;7.45;1.98;;;;;;;;;;6033484;23;20034;-77
2023/03/28 09:29:57;;;;;;;7.95;1.85;;;;;;;;;;6009500;23;20327;-77
2023/03/28 09:32:32;;;;;;;5.18;1.63;;;;;;;;;;6010807;23;20031;-77
2023/03/28 09:35:00;;;;;;;4.78;1.65;;;;;;;;;;6009603;23;20640;-76
2023/03/28 09:37:39;;;;;;;6.28;1.85;;;;;;;;;;5987483;23;20027;-77
2023/03/28 09:40:27;;;;;;;5.18;2.22;;;;;;;;;;6008740;23;20258;-77
2023/03/28 09:43:15;;;;;;;4.70;1.80;;;;;;;;;;6009112;23;20023;-77
2023/03/28 09:46:01;;;;;;;2.72;1.40;;;;;;;;;;6033891;23;20533;-77
2023/03/28 09:48:30;;;;;;;3.60;1.60;;;;;;;;;;6010214;23;20046;-77
2023/03/28 09:50:57;;;;;;;5.10;1.60;;;;;;;;;;6011335;23;20097;-77
2023/03/28 09:53:29;;;;;;;4.22;1.10;;;;;;;;;;6010479;23;20024;-77
2023/03/28 09:56:05;;;;;;;2.33;0.90;;;;;;;;;;6012723;23;20041;-76
2023/03/28 09:58:48;;;;;;;2.28;1.30;;;;;;;;;;6011696;23;20087;-77
2023/03/28 10:01:45;;;;;;;3.92;1.00;;;;;;;;;;6035498;23;20027;-77
2023/03/28 10:04:18;;;;;;;3.00;1.00;;;;;;;;;;5971894;23;20023;-77
2023/03/28 10:06:46;;;;;;;2.33;1.08;;;;;;;;;;6012033;23;20027;-77
2023/03/28 10:09:19;;;;;;;5.60;1.20;;;;;;;;;;6013399;23;20034;-77
2023/03/28 10:11:58;;;;;;;6.35;1.80;;;;;;;;;;6013162;23;20035;-77
2023/03/28 10:14:42;;;;;;;3.88;1.30;;;;;;;;;;6012822;23;20023;-76
2023/03/28 10:17:16;;;;;;;3.00;1.08;;;;;;;;;;6012471;23;20031;-76
2023/03/28 10:19:45;;;;;;;2.45;1.15;;;;;;;;;;6012361;23;20019;-78
2023/03/28 10:22:20;;;;;;;5.82;1.70;;;;;;;;;;6012698;23;20031;-78
2023/03/28 10:24:47;;;;;;;3.47;1.45;;;;;;;;;;6013636;23;20077;-78
2023/03/28 10:27:30;;;;;;;3.50;1.33;;;;;;;;;;6013251;23;20031;-77
2023/03/28 10:30:18;;;;;;;3.22;1.15;;;;;;;;;;6011663;23;20058;-77
2023/03/28 10:32:46;;;;;;;2.75;1.27;;;;;;;;;;6037187;23;20027;-77
2023/03/28 10:35:29;;;;;;;2.38;1.13;;;;;;;;;;6012766;23;20081;-77
2023/03/28 10:37:57;;;;;;;4.85;1.63;;;;;;;;;;6013367;23;20485;-77
2023/03/28 10:40:30;;;;;;;3.83;1.15;;;;;;;;;;6012669;23;20030;-76
2023/03/28 10:42:57;;;;;;;;;;;;;;;;;;6013937;23;20074;-77
2023/03/28 10:45:35;;;;;;;2.25;1.20;;;;;;;;;;6035567;23;19956;-75
2023/03/28 10:48:14;;;;;;;4.90;1.33;;;;;;;;;;6035023;23;20102;-76
2023/03/28 10:50:54;;;;;;;4.60;1.48;;;;;;;;;;6010079;23;20027;-77
2023/03/28 10:53:31;;;;;;;2.30;0.80;;;;;;;;;;6010563;23;20042;-75
2023/03/28 10:56:40;;;;;;;3.10;1.20;;;;;;;;;;6011621;23;20102;-76
2023/03/28 10:59:30;;;;;;;4.50;1.33;;;;;;;;;;6034307;23;20023;-77
2023/03/28 11:02:06;;;;;;;2.50;1.17;;;;;;;;;;6010798;23;20103;-76
2023/03/28 11:05:15;;;;;;;3.33;1.02;;;;;;;;;;6035757;23;20102;-77
2023/03/28 11:07:53;;;;;;;4.78;1.30;;;;;;;;;;6013464;23;20027;-77
2023/03/28 11:10:50;;;;;;;5.18;1.15;;;;;;;;;;6011351;23;20090;-77
2023/03/28 11:13:31;;;;;;;2.15;0.98;;;;;;;;;;6010557;23;20346;-76
2023/03/28 11:16:04;;;;;;;3.92;1.75;;;;;;;;;;6012756;23;20027;-78
2023/03/28 11:18:37;;;;;;;3.47;1.30;;;;;;;;;;6036743;23;20493;-78
2023/03/28 11:21:25;;;;;;;3.35;1.00;;;;;;;;;;6035644;23;20027;-78
2023/03/28 11:24:04;;;;;;;2.38;1.27;;;;;;;;;;6012745;23;20019;-78
2023/03/28 11:26:56;;;;;;;4.22;1.58;;;;;;;;;;6012112;23;20110;-77
2023/03/28 11:29:42;;;;;;;3.88;1.33;;;;;;;;;;6038023;23;20031;-78
2023/03/28 11:32:14;;;;;;;5.88;1.10;;;;;;;;;;6036409;23;20031;-78
2023/03/28 11:35:21;;;;;;;3.38;1.50;;;;;;;;;;6010752;23;20066;-76
2023/03/28 11:38:01;;;;;;;4.95;1.48;;;;;;;;;;6035330;23;20346;-78
2023/03/28 11:40:48;;;;;;;2.63;1.10;;;;;;;;;;6011766;23;20063;-78
2023/03/28 11:43:20;;;;;;;2.75;1.73;;;;;;;;;;6012569;23;20561;-78
2023/03/28 11:45:50;;;;;;;3.67;1.35;;;;;;;;;;6012306;23;20038;-79
2023/03/28 11:48:38;;;;;;;3.17;1.50;;;;;;;;;;6012776;23;20581;-77
2023/03/28 11:51:17;;;;;;;2.63;1.30;;;;;;;;;;6011666;23;20049;-78
2023/03/28 11:54:04;;;;;;;3.70;1.48;;;;;;;;;;6009818;23;20023;-77
2023/03/28 11:56:52;;;;;;;4.63;1.45;;;;;;;;;;6011608;23;20023;-77
2023/03/28 11:59:45;;;;;;;2.95;1.60;;;;;;;;;;6034913;23;20407;-77
2023/03/28 12:02:18;;;;;;;2.58;1.30;;;;;;;;;;6035240;23;20027;-78
2023/03/28 12:04:47;;;;;;;;;;;;;;;;;;6036497;23;20427;-77
2023/03/28 12:07:43;;;;;;;4.93;1.70;;;;;;;;;;6011478;23;19922;-78
2023/03/28 12:10:20;;;;;;;4.38;1.50;;;;;;;;;;5979745;23;20382;-78
2023/03/28 12:12:57;;;;;;;3.83;2.10;;;;;;;;;;6011907;23;20051;-77
2023/03/28 12:15:41;;;;;;;3.00;1.13;;;;;;;;;;6013582;23;20038;-80
2023/03/28 12:18:12;;;;;;;2.13;1.20;;;;;;;;;;6039271;23;20647;-85
2023/03/28 12:20:48;;;;;;;4.55;1.50;;;;;;;;;;6012328;23;20019;-77
2023/03/28 12:23:32;;;;;;;4.05;1.60;;;;;;;;;;6036163;23;20712;-80
2023/03/28 12:26:17;;;;;;;4.22;1.45;;;;;;;;;;6038045;23;20030;-79
2023/03/28 12:28:45;;;;;;;5.45;2.22;;;;;;;;;;6011365;23;20034;-79
2023/03/28 12:31:27;;;;;;;4.45;1.38;;;;;;;;;;6015339;23;20115;-79
2023/03/28 12:34:10;;;;;;;5.40;1.23;;;;;;;;;;6039418;23;20039;-79
2023/03/28 12:36:47;;;;;;;2.15;1.42;;;;;;;;;;6016568;23;20023;-80
2023/03/28 12:39:34;;;;;;;4.97;1.48;;;;;;;;;;6040658;23;20026;-79
2023/03/28 12:42:02;;;;;;;3.40;1.33;;;;;;;;;;6039770;23;20015;-80
2023/03/28 12:44:41;;;;;;;4.70;1.35;;;;;;;;;;6016701;23;20029;-79
2023/03/28 12:47:12;;;;;;;5.15;1.40;;;;;;;;;;6015137;23;20030;-80
2023/03/28 12:49:42;;;;;;;5.50;1.40;;;;;;;;;;6015867;23;20027;-79
2023/03/28 12:52:27;;;;;;;2.67;1.25;;;;;;;;;;6014891;23;20399;-80
2023/03/28 12:54:59;;;;;;;3.75;1.10;;;;;;;;;;6013892;23;20027;-79
2023/03/28 12:57:39;;;;;;;3.03;1.20;;;;;;;;;;6016041;23;20365;-80
2023/03/28 13:00:30;;;;;;;4.13;1.17;;;;;;;;;;6040238;23;20149;-80
2023/03/28 13:03:06;;;;;;;3.50;1.55;;;;;;;;;;6016553;23;20019;-80
2023/03/28 13:05:52;;;;;;;4.03;1.40;;;;;;;;;;6040197;23;20040;-80
2023/03/28 13:08:50;;;;;;;4.53;1.30;;;;;;;;;;6040428;23;20030;-79
2023/03/28 13:11:26;;;;;;;4.03;1.35;;;;;;;;;;6040039;23;20035;-79
2023/03/28 13:14:02;;;;;;;3.40;1.38;;;;;;;;;;6039403;23;20016;-80
2023/03/28 13:16:57;;;;;;;2.95;1.33;;;;;;;;;;6016680;23;20073;-79
2023/03/28 13:19:45;;;;;;;2.50;1.23;;;;;;;;;;6015882;23;20031;-80
2023/03/28 13:22:41;;;;;;;3.47;1.20;;;;;;;;;;6016068;23;20024;-79
2023/03/28 13:25:26;;;;;;;4.50;1.73;;;;;;;;;;5973293;23;20059;-80
2023/03/28 13:27:55;;;;;;;2.63;1.10;;;;;;;;;;6039712;23;20035;-79
2023/03/28 13:30:27;;;;;;;4.38;1.52;;;;;;;;;;6017285;23;20121;-78
2023/03/28 13:33:06;;;;;;;3.77;1.37;;;;;;;;;;6018533;23;20071;-78
2023/03/28 13:35:44;;;;;;;3.83;1.58;;;;;;;;;;6017179;23;20323;-80
2023/03/28 13:38:27;;;;;;;5.13;1.30;;;;;;;;;;6020788;23;20027;-80
2023/03/28 13:41:05;;;;;;;2.63;1.20;;;;;;;;;;6032453;23;20027;-80
2023/03/28 13:43:43;;;;;;;3.83;1.33;;;;;;;;;;6016991;23;20127;-80
2023/03/28 13:46:13;;;;;;;5.18;1.70;;;;;;;;;;6018640;23;20414;-82
2023/03/28 13:48:56;;;;;;;1.92;1.17;;;;;;;;;;6018517;23;20083;-82
2023/03/28 13:51:25;;;;;;;3.78;1.15;;;;;;;;;;6016105;23;20083;-81
2023/03/28 13:53:52;;;;;;;3.45;1.38;;;;;;;;;;6016850;23;20039;-81
2023/03/28 13:56:29;;;;;;;3.58;1.98;;;;;;;;;;5994086;23;20390;-81
2023/03/28 13:58:57;;;;;;;2.60;1.38;;;;;;;;;;6040585;23;20063;-82
2023/03/28 14:01:32;;;;;;;2.10;1.35;;;;;;;;;;5994173;23;20118;-79
2023/03/28 14:04:01;;;;;;;3.67;1.58;;;;;;;;;;6039637;23;20020;-80
2023/03/28 14:06:29;;;;;;;2.03;1.30;;;;;;;;;;5992058;23;20079;-80
2023/03/28 14:08:57;;;;;;;2.25;1.60;;;;;;;;;;6015381;23;20354;-78
2023/03/28 14:11:34;;;;;;;6.43;1.80;;;;;;;;;;6024042;23;20024;-78
2023/03/28 14:14:12;;;;;;;3.95;2.30;;;;;;;;;;6043009;23;20106;-79
2023/03/28 14:16:41;;;;;;;5.97;2.08;;;;;;;;;;5999223;23;20458;-78
2023/03/28 14:19:08;;;;;;;3.50;1.67;;;;;;;;;;5997350;23;20026;-78
2023/03/28 14:21:35;;;;;;;3.45;1.40;;;;;;;;;;5997410;23;20030;-82
2023/03/28 14:24:05;;;;;;;4.72;1.38;;;;;;;;;;5995866;23;20023;-78
2023/03/28 14:26:35;;;;;;;3.80;1.20;;;;;;;;;;5995313;23;20027;-78
2023/03/28 14:29:16;;;;;;;3.30;1.30;;;;;;;;;;5996537;23;20027;-78
2023/03/28 14:31:47;;;;;;;4.75;1.80;;;;;;;;;;5996631;23;20492;-78
2023/03/28 14:34:23;;;;;;;3.28;1.10;;;;;;;;;;5995229;23;20579;-79
2023/03/28 14:36:57;;;;;;;2.40;1.50;;;;;;;;;;6043494;23;20053;-79
2023/03/28 14:39:26;;;;;;;2.35;1.48;;;;;;;;;;6020462;23;20027;-79
2023/03/28 14:41:53;;;;;;;4.93;1.80;;;;;;;;;;5998289;23;20031;-78
2023/03/28 14:44:21;;;;;;;2.45;1.00;;;;;;;;;;5997708;23;20029;-77
2023/03/28 14:46:48;;;;;;;2.83;1.30;;;;;;;;;;5999125;23;20031;-78
2023/03/28 14:49:18;;;;;;;3.60;1.35;;;;;;;;;;5997046;23;20027;-79
2023/03/28 14:51:47;;;;;;;1.65;1.10;;;;;;;;;;5996728;23;20023;-78
2023/03/28 14:54:15;;;;;;;3.40;1.33;;;;;;;;;;5996086;23;20026;-78
2023/03/28 14:56:43;;;;;;;4.03;1.65;;;;;;;;;;5996393;23;20029;-78
2023/03/28 14:59:13;;;;;;;3.22;1.20;;;;;;;;;;6020234;23;20034;-78
2023/03/28 15:01:40;;;;;;;1.30;1.00;;;;;;;;;;5996442;23;20373;-78
2023/03/28 15:04:09;;;;;;;3.70;1.25;;;;;;;;;;5995731;23;20023;-78
2023/03/28 15:06:38;;;;;;;2.78;1.20;;;;;;;;;;5996668;23;20027;-79
2023/03/28 15:09:21;;;;;;;3.33;1.30;;;;;;;;;;5997532;23;20113;-78
2023/03/28 15:11:48;;;;;;;3.78;1.38;;;;;;;;;;5997783;23;20037;-78
2023/03/28 15:14:21;;;;;;;6.13;2.38;;;;;;;;;;5995160;23;20050;-77
2023/03/28 15:16:48;;;;;;;4.60;1.30;;;;;;;;;;5995636;23;20026;-78
2023/03/28 15:19:22;;;;;;;4.70;2.15;;;;;;;;;;6017563;23;20033;-77